Aérodrome :
LOGIN :

S'inscrire | Disclaimer

   EN    FR    IT 

 










Légende :    VFR   VFR Marginal   IFR   IFR Intensif   IFR Très Intensif
Visi : 
Plafond : 
>= 8 km
>= 3000ft
5 à 8 km
1000 à 3000 ft
1500m à 5 km
500 à 1000 ft
800 à 1500m
200 à 500 ft
< 800m
< 200 ft
Symboles :   Orages  Brouillard  Fortes neiges  Fortes précipitations  Vent > 20 kt
SIGMETs :   Divers  Orages  Givrage  Turbulence  Onde Orograph.  Cendres Volcan.






- Altitude de l'aérodrome : 231 ft
- Code IATA : WTN


EGXW - RAF Waddington

DERNIER METAR :
  • 050720Z 15007KT 9999 HZ FEW180 15/12 Q1006 NOSIG RMK BLU BLU

METARs EXPIRÉS :
  • 050717Z 15007KT 9999 HZ FEW180 15/13 Q1006 NOSIG RMK BLU BLU
  • 050650Z 15005KT 5000 HZ FEW180 13/11 Q1007 BECMG 9999 NSW RMK WHT BECMG BLU
  • 050643Z 15005KT 5000 HZ FEW002 SCT180 12/11 Q1007 BECMG 9999 NSW RMK WHT BECMG BLU
  • 050620Z 14006KT 4800 HZ FEW002 SCT180 12/11 Q1007 BECMG 9999 NSW RMK GRN BECMG BLU
  • 050550Z 17005KT 4200 HZ FEW002 BKN190 12/11 Q1007 BECMG 9999 NSW RMK GRN BECMG BLU
  • 050450Z AUTO 15004KT 3400 BR BKN190/// 11/10 Q1007

TAF TAF EGXW
Valide du 05 à 06h jusqu'au 06 à 00h UTC


050440Z 0506/0524 15008KT 4000 BR NSC
BECMG 0506/0507 9999 NSW
TEMPO 0515/0520 7000 RA
BECMG 0516/0520 BKN010
PROB30
TEMPO 0517/0520 3000 +RA
PROB30
TEMPO 0520/0524 7000 SHRA SCT006



MET'MAP, la Météo Aéronautique d'un coup d'oeil ! - Copyright ORBIFLY Décembre 2007 - Disclaimer

ORBIFLY MET'MAP TEAM :

Programmation & Développement : Alexandra Zaïnal
Sur une idée originale de : Baudouin d'Aumeries
Assistance à la programmation : Marc-Olivier Méhu
Soutien technique & logistique : Manuel Goepfert

Contact : metmap@orbifly.com




SOURCES & CREDITS :

   NOAA